Time;durP1;ratioP1;P1;durP2;ratioP2;P2;SDS_P1;SDS_P2;PMS_P1;PMS_P2;Temp;Humidity;BMP_temperature;BMP_pressure;BME280_temperature;BME280_humidity;BME280_pressure;Samples;Min_cycle;Max_cycle;Signal;HPM_P1;HPM_P2
2022/01/29 00:01:43;;;;;;;7.72;2.95;;;;;;;;;;5096882;28;20043;-83
2022/01/29 00:04:11;;;;;;;13.57;5.00;;;;;;;;;;5097787;27;20105;-82
2022/01/29 00:06:37;;;;;;;15.05;4.95;;;;;;;;;;5084398;27;20047;-83
2022/01/29 00:09:03;;;;;;;12.68;4.57;;;;;;;;;;5100607;27;20426;-83
2022/01/29 00:11:35;;;;;;;14.88;4.35;;;;;;;;;;5098803;27;20125;-83
2022/01/29 00:14:01;;;;;;;18.90;4.82;;;;;;;;;;5092450;27;20041;-84
2022/01/29 00:16:27;;;;;;;12.80;3.88;;;;;;;;;;5089867;28;20446;-83
2022/01/29 00:18:53;;;;;;;23.23;4.78;;;;;;;;;;5096150;27;20089;-84
2022/01/29 00:21:19;;;;;;;19.27;5.32;;;;;;;;;;5093590;27;20130;-83
2022/01/29 00:23:45;;;;;;;7.88;2.88;;;;;;;;;;5076025;27;20035;-83
2022/01/29 00:26:12;;;;;;;21.38;4.22;;;;;;;;;;5092461;28;20413;-82
2022/01/29 00:28:38;;;;;;;11.45;4.20;;;7.50;99.90;;;;;;5077003;27;20084;-83
2022/01/29 00:31:05;;;;;;;18.75;5.22;;;;;;;;;;5082188;27;20038;-83
2022/01/29 00:33:31;;;;;;;16.38;5.03;;;;;;;;;;5095451;27;20039;-83
2022/01/29 00:35:57;;;;;;;10.48;3.58;;;;;;;;;;5121154;27;20041;-83
2022/01/29 00:38:23;;;;;;;14.13;3.75;;;;;;;;;;5080238;27;20338;-83
2022/01/29 00:40:49;;;;;;;19.58;3.90;;;;;;;;;;5100417;27;20039;-83
2022/01/29 00:43:17;;;;;;;17.10;4.97;;;;;;;;;;5118534;27;20381;-82
2022/01/29 00:45:43;;;;;;;21.25;3.88;;;;;;;;;;5102489;27;20062;-82
2022/01/29 00:48:09;;;;;;;12.10;3.80;;;;;;;;;;5103739;27;20496;-83
2022/01/29 00:50:35;;;;;;;10.82;2.97;;;;;;;;;;5096040;27;20047;-83
2022/01/29 00:53:01;;;;;;;13.07;3.72;;;;;;;;;;5100104;27;20043;-83
2022/01/29 00:55:27;;;;;;;18.30;3.65;;;7.70;99.90;;;;;;5103968;27;20039;-83
2022/01/29 00:57:54;;;;;;;7.25;3.13;;;;;;;;;;5104851;27;20047;-83
2022/01/29 01:00:20;;;;;;;18.33;4.63;;;;;;;;;;5092877;27;20062;-83
2022/01/29 01:02:46;;;;;;;14.90;4.05;;;;;;;;;;5083703;28;20043;-82
2022/01/29 01:05:12;;;;;;;10.90;3.38;;;;;;;;;;5085405;27;20523;-83
2022/01/29 01:07:39;;;;;;;11.93;4.18;;;;;;;;;;5079000;27;20351;-83
2022/01/29 01:10:06;;;;;;;18.58;5.00;;;;;;;;;;5103103;27;20043;-82
2022/01/29 01:12:33;;;;;;;11.23;4.05;;;;;;;;;;5091500;28;20126;-83
2022/01/29 01:14:59;;;;;;;13.63;4.47;;;;;;;;;;5092297;28;20108;-82
2022/01/29 01:17:25;;;;;;;12.50;3.42;;;;;;;;;;5097258;27;20110;-82
2022/01/29 01:19:52;;;;;;;18.77;5.20;;;;;;;;;;5080843;27;20536;-83
2022/01/29 01:22:18;;;;;;;16.73;5.90;;;;;;;;;;5094564;28;20476;-82
2022/01/29 01:24:47;;;;;;;19.35;5.00;;;;;;;;;;5100439;28;20035;-83
2022/01/29 01:27:13;;;;;;;11.55;4.53;;;;;;;;;;5076825;27;20366;-83
2022/01/29 01:29:39;;;;;;;13.52;4.72;;;;;;;;;;5080176;27;20035;-83
2022/01/29 01:32:10;;;;;;;19.73;6.47;;;;;;;;;;5101334;27;20512;-82
2022/01/29 01:34:39;;;;;;;16.20;5.47;;;;;;;;;;5099297;27;20047;-82
2022/01/29 01:37:10;;;;;;;20.92;5.20;;;;;;;;;;5099671;27;20057;-82
2022/01/29 01:39:38;;;;;;;20.55;5.85;;;;;;;;;;5097981;27;20569;-83
2022/01/29 01:42:06;;;;;;;16.73;5.60;;;8.00;99.90;;;;;;5101703;27;20063;-83
2022/01/29 01:44:39;;;;;;;24.70;6.10;;;;;;;;;;5099420;27;20046;-83
2022/01/29 01:47:05;;;;;;;17.25;5.07;;;;;;;;;;5103182;27;20117;-82
2022/01/29 01:49:32;;;;;;;28.92;5.65;;;;;;;;;;5094431;27;20070;-83
2022/01/29 01:51:58;;;;;;;15.88;4.20;;;;;;;;;;5099286;27;20042;-83
2022/01/29 01:54:24;;;;;;;24.20;6.38;;;8.00;99.90;;;;;;5100317;27;20450;-83
2022/01/29 01:56:51;;;;;;;22.15;6.13;;;;;;;;;;5082267;28;20078;-82
2022/01/29 01:59:17;;;;;;;19.52;4.75;;;;;;;;;;5105515;27;20630;-83
2022/01/29 02:01:43;;;;;;;16.70;6.15;;;;;;;;;;5088559;27;20412;-83
2022/01/29 02:04:09;;;;;;;19.77;5.35;;;;;;;;;;5093464;27;20134;-83
2022/01/29 02:06:35;;;;;;;21.80;7.30;;;;;;;;;;5095328;27;20039;-83
2022/01/29 02:09:02;;;;;;;26.05;6.65;;;;;;;;;;5086493;27;20055;-83
2022/01/29 02:11:29;;;;;;;26.00;6.97;;;;;;;;;;5080452;27;20479;-82
2022/01/29 02:13:57;;;;;;;18.77;6.50;;;;;;;;;;5101047;28;20047;-84
2022/01/29 02:16:23;;;;;;;12.57;5.05;;;;;;;;;;5102809;27;20139;-82
2022/01/29 02:18:50;;;;;;;19.17;5.90;;;;;;;;;;5094629;27;20068;-83
2022/01/29 02:21:16;;;;;;;16.38;5.20;;;;;;;;;;5094626;27;20708;-83
2022/01/29 02:23:42;;;;;;;34.63;9.90;;;;;;;;;;5099850;27;20096;-82
2022/01/29 02:26:09;;;;;;;16.27;5.13;;;;;;;;;;5097895;27;20477;-83
2022/01/29 02:28:35;;;;;;;18.98;5.78;;;;;;;;;;5091991;27;20038;-83
2022/01/29 02:31:03;;;;;;;14.07;5.13;;;;;;;;;;5095273;27;20043;-80
2022/01/29 02:33:30;;;;;;;20.98;6.28;;;;;;;;;;5093084;27;20139;-82
2022/01/29 02:35:57;;;;;;;24.85;7.20;;;;;;;;;;5098760;27;20031;-83
2022/01/29 02:38:24;;;;;;;19.45;6.45;;;;;;;;;;5096780;27;20088;-83
2022/01/29 02:40:55;;;;;;;21.42;5.78;;;;;;;;;;5077273;27;20039;-83
2022/01/29 02:43:35;;;;;;;19.08;6.10;;;8.30;76.20;;;;;;5091674;27;20047;-83
2022/01/29 02:46:21;;;;;;;20.00;6.63;;;;;;;;;;5097716;27;20487;-80
2022/01/29 02:48:48;;;;;;;27.02;7.03;;;;;;;;;;5098616;27;20452;-83
2022/01/29 02:51:14;;;;;;;21.75;5.88;;;;;;;;;;5091248;27;20153;-83
2022/01/29 02:53:40;;;;;;;19.83;5.82;;;;;;;;;;5079214;27;20047;-82
2022/01/29 02:56:08;;;;;;;20.85;7.93;;;;;;;;;;5090839;28;20066;-83
2022/01/29 02:58:34;;;;;;;18.92;5.20;;;;;;;;;;5093586;27;20424;-82
2022/01/29 03:01:00;;;;;;;14.15;5.90;;;;;;;;;;5075239;27;20421;-81
2022/01/29 03:03:26;;;;;;;18.63;5.13;;;;;;;;;;5089058;28;20047;-82
2022/01/29 03:05:53;;;;;;;25.45;6.35;;;;;;;;;;5092857;28;20105;-82
2022/01/29 03:08:19;;;;;;;22.80;6.00;;;;;;;;;;5094226;27;20127;-82
2022/01/29 03:10:48;;;;;;;34.33;9.40;;;;;;;;;;5097119;27;20035;-83
2022/01/29 03:13:15;;;;;;;24.27;6.20;;;;;;;;;;5089919;28;20078;-83
2022/01/29 03:15:41;;;;;;;24.15;7.60;;;;;;;;;;5094738;27;20482;-82
2022/01/29 03:18:07;;;;;;;20.70;7.53;;;;;;;;;;5076330;28;20420;-82
2022/01/29 03:20:33;;;;;;;25.65;6.32;;;;;;;;;;5091127;28;20416;-82
2022/01/29 03:23:00;;;;;;;20.42;7.07;;;;;;;;;;5086478;28;20039;-83
2022/01/29 03:25:26;;;;;;;17.85;7.43;;;;;;;;;;5099278;27;20435;-84
2022/01/29 03:27:52;;;;;;;24.70;6.97;;;;;;;;;;5101113;28;20508;-82
2022/01/29 03:30:19;;;;;;;20.58;7.65;;;;;;;;;;5085425;27;20102;-83
2022/01/29 03:32:45;;;;;;;21.42;7.20;;;;;;;;;;5095742;28;20037;-83
2022/01/29 03:35:11;;;;;;;26.75;8.23;;;;;;;;;;5097538;28;20043;-83
2022/01/29 03:37:37;;;;;;;33.97;9.88;;;;;;;;;;5099221;27;20050;-83
2022/01/29 03:40:06;;;;;;;31.00;7.90;;;;;;;;;;5101573;28;20083;-82
2022/01/29 03:42:38;;;;;;;24.00;9.77;;;;;;;;;;5100565;28;20043;-81
2022/01/29 03:45:07;;;;;;;24.52;8.23;;;;;;;;;;5098158;28;20075;-83
2022/01/29 03:47:33;;;;;;;21.58;7.38;;;;;;;;;;5097415;28;20177;-82
2022/01/29 03:49:59;;;;;;;20.08;9.82;;;;;;;;;;5096599;28;20458;-83
2022/01/29 03:52:25;;;;;;;25.42;9.18;;;;;;;;;;5102888;28;20042;-84
2022/01/29 03:54:51;;;;;;;17.05;8.52;;;;;;;;;;5099918;28;20130;-84
2022/01/29 03:57:17;;;;;;;24.63;9.45;;;;;;;;;;5101312;28;20366;-83
2022/01/29 03:59:43;;;;;;;19.00;7.20;;;;;;;;;;5093287;28;20051;-83
2022/01/29 04:02:09;;;;;;;12.75;6.47;;;;;;;;;;5089572;28;20500;-83
2022/01/29 04:04:36;;;;;;;20.02;7.78;;;;;;;;;;5096044;28;20099;-82
2022/01/29 04:07:09;;;;;;;16.77;7.55;;;;;;;;;;5097845;28;20403;-83
2022/01/29 04:09:35;;;;;;;24.02;8.93;;;;;;;;;;5095399;28;20086;-81
2022/01/29 04:12:02;;;;;;;21.17;9.50;;;;;;;;;;5082319;28;20111;-81
2022/01/29 04:14:34;;;;;;;24.52;9.27;;;;;;;;;;5096180;28;20088;-82
2022/01/29 04:17:01;;;;;;;17.42;7.35;;;;;;;;;;5076706;28;20039;-82
2022/01/29 04:19:27;;;;;;;23.15;8.23;;;;;;;;;;5100371;28;20043;-81
2022/01/29 04:21:53;;;;;;;27.95;10.23;;;;;;;;;;5093846;28;20051;-82
2022/01/29 04:24:19;;;;;;;21.90;7.85;;;;;;;;;;5089279;28;20061;-81
2022/01/29 04:26:45;;;;;;;29.48;10.07;;;;;;;;;;5085311;28;20070;-82
2022/01/29 04:29:11;;;;;;;23.63;9.32;;;;;;;;;;5100803;28;20469;-83
2022/01/29 04:31:44;;;;;;;27.77;11.00;;;8.80;73.80;;;;;;5099845;28;20050;-81
2022/01/29 04:34:11;;;;;;;24.95;10.05;;;;;;;;;;5094339;27;20036;-83
2022/01/29 04:36:37;;;;;;;16.95;7.97;;;;;;;;;;5099426;27;20040;-81
2022/01/29 04:39:04;;;;;;;25.80;9.80;;;;;;;;;;5102084;27;20420;-81
2022/01/29 04:41:30;;;;;;;16.52;7.32;;;;;;;;;;5079865;27;20574;-82
2022/01/29 04:43:56;;;;;;;27.63;10.80;;;;;;;;;;5096292;27;20031;-83
2022/01/29 04:46:23;;;;;;;20.33;8.40;;;;;;;;;;5079129;27;20034;-82
2022/01/29 04:48:49;;;;;;;16.92;9.52;;;;;;;;;;5097829;27;20047;-82
2022/01/29 04:51:15;;;;;;;24.83;10.25;;;;;;;;;;5093986;27;20496;-82
2022/01/29 04:53:42;;;;;;;21.92;9.45;;;;;;;;;;5080482;27;20041;-81
2022/01/29 04:56:08;;;;;;;28.42;11.35;;;;;;;;;;5089292;28;20051;-82
2022/01/29 04:58:35;;;;;;;19.73;8.80;;;;;;;;;;5111421;27;20487;-81
2022/01/29 05:01:02;;;;;;;23.58;9.05;;;;;;;;;;5097208;27;20073;-82
2022/01/29 05:03:28;;;;;;;27.38;9.85;;;;;;;;;;5093440;27;20043;-83
2022/01/29 05:05:55;;;;;;;29.85;10.57;;;;;;;;;;5103975;27;20127;-83
2022/01/29 05:08:21;;;;;;;22.58;11.27;;;;;;;;;;5074535;27;20047;-82
2022/01/29 05:10:47;;;;;;;23.98;10.02;;;;;;;;;;5079438;27;20036;-84
2022/01/29 05:13:18;;;;;;;21.13;8.98;;;;;;;;;;5091686;27;20045;-83
2022/01/29 05:16:27;;;;;;;21.88;11.30;;;;;;;;;;5075325;27;20133;-83
2022/01/29 05:26:51;;;;;;;25.35;10.70;;;;;;;;;;5099713;27;20507;-84
2022/01/29 05:29:17;;;;;;;21.73;10.18;;;;;;;;;;5102431;27;20374;-82
2022/01/29 05:31:43;;;;;;;22.27;10.13;;;;;;;;;;5084372;27;20115;-83
2022/01/29 05:34:10;;;;;;;17.15;8.93;;;;;;;;;;5083934;27;20036;-84
2022/01/29 05:36:36;;;;;;;28.30;11.77;;;;;;;;;;5076661;27;20507;-84
2022/01/29 05:39:03;;;;;;;26.10;10.05;;;;;;;;;;5098981;27;20047;-84
2022/01/29 05:41:30;;;;;;;18.70;7.97;;;;;;;;;;5079947;27;20035;-83
2022/01/29 05:43:56;;;;;;;26.52;11.52;;;;;;;;;;5098567;27;20084;-83
2022/01/29 05:46:22;;;;;;;20.17;10.32;;;9.00;63.00;;;;;;5091346;27;20138;-83
2022/01/29 05:48:49;;;;;;;23.33;11.07;;;;;;;;;;5102632;27;20134;-84
2022/01/29 05:51:15;;;;;;;21.58;9.63;;;;;;;;;;5093854;27;20077;-82
2022/01/29 05:53:41;;;;;;;21.10;9.93;;;;;;;;;;5099035;27;20091;-83
2022/01/29 05:56:07;;;;;;;20.70;8.70;;;;;;;;;;5090817;27;20396;-81
2022/01/29 05:58:33;;;;;;;19.85;8.95;;;;;;;;;;5096990;27;20044;-83
2022/01/29 06:01:00;;;;;;;28.25;12.98;;;;;;;;;;5100610;27;20035;-85
2022/01/29 06:03:26;;;;;;;15.15;8.68;;;;;;;;;;5089912;27;20047;-83
2022/01/29 06:05:52;;;;;;;21.52;8.88;;;;;;;;;;5100370;27;20036;-83
2022/01/29 06:08:19;;;;;;;16.00;6.88;;;;;;;;;;5089825;27;20046;-83
2022/01/29 06:10:45;;;;;;;22.98;10.85;;;;;;;;;;5087307;28;20031;-84
2022/01/29 06:13:17;;;;;;;21.60;10.50;;;;;;;;;;5091607;27;20060;-82
2022/01/29 06:15:45;;;;;;;18.45;8.82;;;8.70;67.30;;;;;;5096919;27;20103;-81
2022/01/29 06:18:13;;;;;;;18.35;7.35;;;;;;;;;;5098167;27;20039;-82
2022/01/29 06:20:40;;;;;;;24.23;9.05;;;;;;;;;;5104483;27;20042;-82
2022/01/29 06:23:07;;;;;;;25.35;11.00;;;;;;;;;;5093606;27;20120;-83
2022/01/29 06:25:33;;;;;;;16.25;5.97;;;;;;;;;;5095430;27;20054;-83
2022/01/29 06:27:59;;;;;;;16.23;7.53;;;;;;;;;;5095711;27;20039;-83
2022/01/29 06:30:25;;;;;;;18.17;8.55;;;;;;;;;;5101740;27;20045;-82
2022/01/29 06:32:52;;;;;;;20.80;10.45;;;;;;;;;;5097775;27;20122;-83
2022/01/29 06:35:18;;;;;;;21.83;9.30;;;;;;;;;;5102952;27;20603;-84
2022/01/29 06:37:44;;;;;;;18.75;8.52;;;;;;;;;;5097402;27;20046;-82
2022/01/29 06:40:10;;;;;;;14.98;7.53;;;;;;;;;;5097472;27;20095;-82
2022/01/29 06:42:36;;;;;;;18.10;6.88;;;;;;;;;;5100983;27;20046;-84
2022/01/29 06:45:03;;;;;;;11.93;4.63;;;;;;;;;;5100789;27;20064;-84
2022/01/29 06:47:30;;;;;;;12.80;6.57;;;;;;;;;;5096766;27;20036;-82
2022/01/29 06:49:56;;;;;;;13.90;6.72;;;;;;;;;;5102335;27;20398;-85
2022/01/29 06:52:24;;;;;;;17.50;7.55;;;;;;;;;;5109732;27;20085;-83
2022/01/29 06:54:50;;;;;;;16.02;6.72;;;;;;;;;;5098808;27;20042;-84
2022/01/29 06:57:17;;;;;;;17.85;8.60;;;;;;;;;;5081744;28;20056;-83
2022/01/29 06:59:43;;;;;;;20.70;9.23;;;;;;;;;;5094721;27;20051;-84
2022/01/29 07:02:09;;;;;;;22.35;7.70;;;;;;;;;;5093283;27;20038;-83
2022/01/29 07:04:35;;;;;;;17.25;5.85;;;;;;;;;;5097998;28;20781;-83
2022/01/29 07:07:01;;;;;;;13.85;6.15;;;;;;;;;;5100344;28;20497;-83
2022/01/29 07:09:27;;;;;;;15.95;6.53;;;;;;;;;;5086358;27;20043;-83
2022/01/29 07:11:57;;;;;;;23.00;6.72;;;;;;;;;;5083587;27;20038;-83
2022/01/29 07:14:23;;;;;;;18.73;7.78;;;;;;;;;;5094365;28;20409;-83
2022/01/29 07:16:49;;;;;;;17.05;6.95;;;;;;;;;;5091245;28;20126;-83
2022/01/29 07:19:16;;;;;;;20.75;8.32;;;;;;;;;;5089719;28;20135;-84
2022/01/29 07:21:42;;;;;;;14.68;4.40;;;;;;;;;;5094653;27;20051;-84
2022/01/29 07:24:08;;;;;;;15.95;6.45;;;;;;;;;;5102726;28;20389;-84
2022/01/29 07:26:34;;;;;;;14.85;6.28;;;;;;;;;;5075536;28;20042;-83
2022/01/29 07:29:00;;;;;;;18.75;5.47;;;;;;;;;;5078712;28;20536;-82
2022/01/29 07:31:26;;;;;;;14.30;6.30;;;;;;;;;;5087376;28;20031;-83
2022/01/29 07:33:54;;;;;;;14.20;5.88;;;;;;;;;;5110837;28;20039;-82
2022/01/29 07:36:19;;;;;;;16.55;5.28;;;8.70;99.90;;;;;;5083565;28;20039;-81
2022/01/29 07:38:46;;;;;;;11.95;6.07;;;;;;;;;;5098137;28;20042;-81
2022/01/29 07:41:12;;;;;;;16.23;5.47;;;;;;;;;;5094752;28;20051;-81
2022/01/29 07:43:38;;;;;;;19.20;7.28;;;;;;;;;;5078667;28;20040;-82
2022/01/29 07:46:04;;;;;;;8.13;3.47;;;;;;;;;;5099004;28;20043;-81
2022/01/29 07:48:30;;;;;;;11.32;4.85;;;;;;;;;;5096856;27;20046;-80
2022/01/29 07:50:56;;;;;;;17.30;4.57;;;;;;;;;;5100118;28;20083;-83
2022/01/29 07:53:22;;;;;;;18.25;5.90;;;;;;;;;;5098009;28;20433;-80
2022/01/29 07:55:48;;;;;;;17.05;6.40;;;;;;;;;;5094233;28;20505;-83
2022/01/29 07:58:15;;;;;;;10.60;4.75;;;;;;;;;;5092695;28;20505;-82
2022/01/29 08:00:41;;;;;;;15.52;4.95;;;;;;;;;;5072305;28;20047;-81
2022/01/29 08:03:07;;;;;;;16.83;6.68;;;;;;;;;;5091560;28;20167;-82
2022/01/29 08:05:34;;;;;;;13.68;5.80;;;;;;;;;;5089570;28;20413;-81
2022/01/29 08:08:01;;;;;;;14.52;5.07;;;;;;;;;;5073761;28;20044;-79
2022/01/29 08:10:27;;;;;;;14.48;4.88;;;;;;;;;;5098770;28;20875;-81
2022/01/29 08:12:53;;;;;;;17.23;4.80;;;;;;;;;;5085286;28;20150;-79
2022/01/29 08:15:19;;;;;;;20.60;5.65;;;;;;;;;;5095551;28;20151;-83
2022/01/29 08:17:45;;;;;;;10.07;4.30;;;;;;;;;;5069441;28;20685;-81
2022/01/29 08:20:12;;;;;;;12.27;5.53;;;8.70;99.90;;;;;;5097931;28;20118;-80
2022/01/29 08:22:38;;;;;;;12.07;4.45;;;;;;;;;;5081715;28;20039;-82
2022/01/29 08:25:05;;;;;;;13.80;4.65;;;;;;;;;;5099321;28;20118;-84
2022/01/29 08:27:31;;;;;;;13.10;5.47;;;;;;;;;;5079833;28;20470;-83
2022/01/29 08:29:57;;;;;;;10.30;4.32;;;;;;;;;;5097568;27;20062;-82
2022/01/29 08:32:23;;;;;;;11.98;3.90;;;;;;;;;;5105488;27;20092;-81
2022/01/29 08:34:50;;;;;;;12.48;5.28;;;;;;;;;;5083125;28;20043;-82
2022/01/29 08:37:16;;;;;;;16.05;5.82;;;;;;;;;;5080635;28;20165;-81
2022/01/29 08:39:43;;;;;;;14.77;4.60;;;;;;;;;;5076467;28;20081;-81
2022/01/29 08:42:09;;;;;;;11.68;4.60;;;;;;;;;;5094187;28;20044;-82
2022/01/29 08:44:36;;;;;;;12.98;4.90;;;;;;;;;;5092444;28;20039;-80
2022/01/29 08:47:02;;;;;;;18.75;5.25;;;;;;;;;;5092503;28;20511;-82
2022/01/29 08:49:28;;;;;;;15.07;5.85;;;;;;;;;;5078674;28;20122;-82
2022/01/29 08:51:54;;;;;;;11.85;4.25;;;;;;;;;;5078272;28;20439;-82
2022/01/29 08:54:21;;;;;;;12.10;3.38;;;;;;;;;;5080230;28;20055;-83
2022/01/29 08:56:48;;;;;;;15.35;3.45;;;;;;;;;;5093388;27;20554;-82
2022/01/29 08:59:14;;;;;;;7.85;2.63;;;;;;;;;;5079919;27;20095;-86
2022/01/29 09:01:40;;;;;;;13.35;3.72;;;;;;;;;;5099453;27;20354;-84
2022/01/29 09:04:07;;;;;;;8.45;3.60;;;;;;;;;;5099474;27;20040;-83
2022/01/29 09:06:34;;;;;;;9.25;3.92;;;;;;;;;;5101378;27;20481;-83
2022/01/29 09:09:00;;;;;;;7.47;2.83;;;;;;;;;;5082816;27;20455;-81
2022/01/29 09:11:26;;;;;;;9.57;3.17;;;;;;;;;;5096433;28;20036;-84
2022/01/29 09:13:52;;;;;;;11.65;3.67;;;;;;;;;;5094887;27;20032;-82
2022/01/29 09:16:19;;;;;;;9.77;3.60;;;;;;;;;;5080933;27;20039;-86
2022/01/29 09:18:45;;;;;;;15.10;4.75;;;;;;;;;;5091224;27;20149;-83
2022/01/29 09:21:12;;;;;;;11.27;3.55;;;;;;;;;;5099101;28;20055;-80
2022/01/29 09:23:38;;;;;;;11.13;2.90;;;;;;;;;;5095674;27;20043;-79
2022/01/29 09:26:04;;;;;;;10.13;2.83;;;;;;;;;;5084022;27;20079;-80
2022/01/29 09:28:31;;;;;;;6.22;2.65;;;;;;;;;;5095246;27;20071;-80
2022/01/29 09:30:57;;;;;;;14.02;3.85;;;;;;;;;;5101025;27;20489;-80
2022/01/29 09:33:23;;;;;;;16.25;4.07;;;;;;;;;;5100770;27;20035;-80
2022/01/29 09:35:49;;;;;;;11.45;3.20;;;;;;;;;;5094824;27;20039;-80
2022/01/29 09:38:15;;;;;;;12.52;3.30;;;;;;;;;;5102285;27;20050;-81
2022/01/29 09:40:42;;;;;;;7.40;1.67;;;;;;;;;;5099478;27;20112;-81
2022/01/29 09:43:10;;;;;;;12.95;3.05;;;9.30;36.00;;;;;;5100032;27;20043;-81
2022/01/29 09:45:37;;;;;;;12.07;2.58;;;;;;;;;;5082660;27;20521;-81
2022/01/29 09:48:03;;;;;;;13.10;2.97;;;;;;;;;;5119392;27;20077;-80
2022/01/29 09:50:34;;;;;;;10.65;2.72;;;;;;;;;;5101519;27;20468;-80
2022/01/29 09:53:01;;;;;;;10.60;2.20;;;;;;;;;;5090746;28;20035;-80
2022/01/29 09:55:29;;;;;;;8.60;2.72;;;;;;;;;;5099972;27;20478;-80
2022/01/29 09:57:55;;;;;;;9.85;2.63;;;;;;;;;;5079644;28;20052;-81
2022/01/29 10:00:21;;;;;;;11.63;2.25;;;;;;;;;;5078205;28;20176;-81
2022/01/29 10:03:06;;;;;;;10.85;2.22;;;;;;;;;;5094843;28;20556;-80
2022/01/29 10:05:36;;;;;;;10.07;2.63;;;;;;;;;;5087794;28;20182;-80
2022/01/29 10:08:02;;;;;;;6.28;1.95;;;;;;;;;;5080151;28;20044;-81
2022/01/29 10:10:28;;;;;;;10.82;2.67;;;9.50;99.90;;;;;;5097275;28;20031;-80
2022/01/29 10:12:54;;;;;;;11.93;2.55;;;;;;;;;;5093303;28;20059;-81
2022/01/29 10:15:23;;;;;;;9.48;2.00;;;;;;;;;;5088957;28;20591;-81
2022/01/29 10:17:51;;;;;;;10.65;2.05;;;;;;;;;;5099548;28;20150;-80
2022/01/29 10:20:25;;;;;;;11.48;2.58;;;;;;;;;;5098799;28;20035;-81
2022/01/29 10:23:01;;;;;;;14.48;2.83;;;;;;;;;;5092988;28;20074;-82
2022/01/29 10:25:28;;;;;;;8.75;1.67;;;;;;;;;;5094101;28;20047;-81
2022/01/29 10:28:06;;;;;;;9.43;2.13;;;;;;;;;;5091708;28;20047;-81
2022/01/29 10:30:32;;;;;;;9.25;1.73;;;;;;;;;;5092823;27;20101;-81
2022/01/29 10:33:23;;;;;;;9.27;2.08;;;9.90;1.00;;;;;;5095311;28;20465;-80
2022/01/29 10:35:52;;;;;;;10.88;1.92;;;9.90;1.00;;;;;;5080161;28;20101;-81
2022/01/29 10:38:26;;;;;;;15.68;2.80;;;;;;;;;;5094826;28;20047;-81
2022/01/29 10:41:11;;;;;;;17.50;2.10;;;;;;;;;;5093492;28;20130;-81
2022/01/29 10:43:53;;;;;;;13.63;2.70;;;;;;;;;;5095185;28;20078;-81
2022/01/29 10:46:30;;;;;;;14.88;2.88;;;;;;;;;;5089658;28;20042;-80
2022/01/29 10:48:57;;;;;;;8.35;2.00;;;;;;;;;;5080604;28;20124;-81
2022/01/29 10:51:24;;;;;;;10.70;2.33;;;;;;;;;;5088474;28;20516;-80
2022/01/29 10:53:51;;;;;;;11.23;1.60;;;10.30;19.00;;;;;;5074041;28;20081;-80
2022/01/29 10:56:18;;;;;;;13.13;1.80;;;;;;;;;;5091335;28;20043;-80
2022/01/29 10:58:47;;;;;;;7.93;1.85;;;;;;;;;;5092011;28;20138;-81
2022/01/29 11:01:22;;;;;;;7.55;1.85;;;;;;;;;;5093029;28;20063;-80
2022/01/29 11:03:50;;;;;;;;;;;;;;;;;;5091414;28;20477;-80
2022/01/29 11:06:19;;;;;;;8.80;2.05;;;;;;;;;;5089954;28;19931;-80
2022/01/29 11:08:45;;;;;;;11.23;2.78;;;;;;;;;;5077714;28;20078;-80
2022/01/29 11:11:13;;;;;;;9.50;2.40;;;;;;;;;;5091694;28;20501;-80
2022/01/29 11:13:40;;;;;;;10.70;1.88;;;;;;;;;;5095723;28;20078;-81
2022/01/29 11:16:06;;;;;;;11.60;2.00;;;;;;;;;;5086646;28;20052;-80
2022/01/29 11:18:33;;;;;;;11.63;2.40;;;10.30;1.00;;;;;;5092109;28;20043;-80
2022/01/29 11:21:00;;;;;;;9.55;1.90;;;;;;;;;;5098491;28;20039;-80
2022/01/29 11:23:27;;;;;;;17.95;2.80;;;;;;;;;;5094763;28;20140;-80
2022/01/29 11:25:57;;;;;;;7.78;1.40;;;;;;;;;;5096544;28;20040;-80
2022/01/29 11:28:28;;;;;;;10.55;2.30;;;;;;;;;;5080072;28;20479;-81
2022/01/29 11:31:15;;;;;;;10.75;1.98;;;;;;;;;;5095588;28;20027;-81
2022/01/29 11:33:59;;;;;;;6.50;1.40;;;;;;;;;;5092380;28;20046;-81
2022/01/29 11:36:47;;;;;;;12.80;1.85;;;8.90;1.00;;;;;;5068877;28;20036;-81
2022/01/29 11:39:22;;;;;;;7.85;1.80;;;;;;;;;;5092185;28;20044;-79
2022/01/29 11:42:13;;;;;;;8.52;2.20;;;10.50;1.00;;;;;;5093789;28;20039;-81
2022/01/29 11:44:40;;;;;;;9.60;2.40;;;;;;;;;;5080700;28;20082;-80
2022/01/29 11:47:25;;;;;;;9.50;3.03;;;;;;;;;;5094728;28;20126;-79
2022/01/29 11:50:30;;;;;;;9.75;1.75;;;;;;;;;;5102716;27;20047;-82
2022/01/29 11:52:57;;;;;;;9.73;2.10;;;;;;;;;;5092698;28;20497;-81
2022/01/29 11:55:33;;;;;;;12.50;2.08;;;;;;;;;;5094392;28;20119;-81
2022/01/29 11:58:16;;;;;;;9.23;2.00;;;;;;;;;;5100259;28;20127;-81
2022/01/29 12:00:44;;;;;;;8.60;2.35;;;;;;;;;;5099594;28;20036;-81
2022/01/29 12:03:31;;;;;;;9.13;3.38;;;;;;;;;;5094404;28;20036;-80
2022/01/29 12:08:42;;;;;;;11.38;3.05;;;;;;;;;;5098096;28;20424;-81
2022/01/29 12:11:14;;;;;;;12.32;2.78;;;;;;;;;;5082590;28;20071;-81
2022/01/29 12:13:41;;;;;;;10.90;2.45;;;;;;;;;;5098981;28;20051;-80
2022/01/29 12:16:09;;;;;;;8.30;1.85;;;;;;;;;;5093212;28;20102;-81
2022/01/29 12:18:36;;;;;;;11.88;2.42;;;;;;;;;;5079050;28;20054;-81
2022/01/29 12:21:04;;;;;;;17.23;2.28;;;;;;;;;;5073091;28;20146;-81
2022/01/29 12:23:30;;;;;;;16.58;2.30;;;;;;;;;;5098240;28;20043;-81
2022/01/29 12:25:58;;;;;;;14.63;2.50;;;;;;;;;;5096690;28;20035;-81
2022/01/29 12:28:25;;;;;;;12.60;2.00;;;;;;;;;;5101091;28;20120;-81
2022/01/29 12:30:51;;;;;;;10.35;2.50;;;;;;;;;;5099027;27;20044;-81
2022/01/29 12:33:23;;;;;;;9.55;2.30;;;;;;;;;;5092040;28;20055;-80
2022/01/29 12:36:03;;;;;;;9.52;2.00;;;11.20;1.00;;;;;;5096850;28;20912;-80
2022/01/29 12:38:40;;;;;;;7.10;2.53;;;;;;;;;;5097856;28;20055;-81
2022/01/29 12:41:07;;;;;;;10.45;1.80;;;;;;;;;;5083487;28;20048;-82
2022/01/29 12:43:42;;;;;;;10.02;2.13;;;;;;;;;;5092252;28;20455;-80
2022/01/29 12:46:08;;;;;;;9.70;2.00;;;;;;;;;;5092523;28;20074;-80
2022/01/29 12:48:34;;;;;;;13.35;2.58;;;;;;;;;;5085804;27;20430;-81
2022/01/29 12:51:05;;;;;;;10.38;2.00;;;11.10;1.00;;;;;;5094287;28;20062;-81
2022/01/29 12:53:31;;;;;;;10.32;1.67;;;;;;;;;;5075890;28;20043;-81
2022/01/29 12:56:02;;;;;;;5.30;1.83;;;11.00;1.00;;;;;;5095820;28;20050;-80
2022/01/29 12:58:29;;;;;;;5.63;1.45;;;;;;;;;;5089289;28;20094;-82
2022/01/29 13:01:03;;;;;;;5.88;1.10;;;;;;;;;;5092054;28;20043;-81
2022/01/29 13:03:29;;;;;;;7.80;1.80;;;;;;;;;;5088268;28;20039;-81
2022/01/29 13:06:02;;;;;;;7.00;1.73;;;;;;;;;;5077323;28;20100;-82
2022/01/29 13:08:28;;;;;;;9.43;2.15;;;;;;;;;;5077338;28;20088;-81
2022/01/29 13:10:55;;;;;;;8.93;1.77;;;;;;;;;;5074187;28;20135;-81
2022/01/29 13:13:31;;;;;;;4.95;2.13;;;;;;;;;;5094198;28;20058;-82
2022/01/29 13:15:58;;;;;;;12.80;2.20;;;;;;;;;;5076729;28;20039;-81
2022/01/29 13:18:24;;;;;;;13.82;3.10;;;;;;;;;;5075611;28;20160;-83
2022/01/29 13:20:51;;;;;;;7.35;1.80;;;;;;;;;;5076547;28;20311;-81
2022/01/29 13:23:17;;;;;;;8.90;2.03;;;;;;;;;;5078179;28;20043;-81
2022/01/29 13:25:43;;;;;;;11.35;2.58;;;;;;;;;;5094847;28;20071;-82
2022/01/29 13:28:12;;;;;;;8.88;2.53;;;;;;;;;;5094835;28;20042;-82
2022/01/29 13:30:40;;;;;;;12.27;1.92;;;11.20;1.00;;;;;;5079326;28;20031;-81
2022/01/29 13:33:11;;;;;;;5.55;1.85;;;;;;;;;;5094167;28;20519;-79
2022/01/29 13:35:48;;;;;;;10.73;2.17;;;;;;;;;;5096032;28;20108;-80
2022/01/29 13:38:17;;;;;;;9.25;1.95;;;;;;;;;;5090912;28;20047;-80
2022/01/29 13:40:48;;;;;;;11.25;1.98;;;;;;;;;;5092298;28;20381;-80
2022/01/29 13:43:23;;;;;;;8.80;1.33;;;;;;;;;;5092715;28;20073;-79
2022/01/29 13:45:51;;;;;;;11.25;2.15;;;;;;;;;;5094906;28;20031;-80
2022/01/29 13:48:17;;;;;;;8.45;1.63;;;;;;;;;;5112167;27;20040;-80
2022/01/29 13:50:45;;;;;;;10.63;1.70;;;;;;;;;;5067618;28;20028;-80
2022/01/29 13:53:15;;;;;;;11.05;2.63;;;;;;;;;;5083258;28;20100;-81
2022/01/29 13:56:02;;;;;;;10.60;2.25;;;;;;;;;;5080428;28;20044;-81
2022/01/29 13:58:43;;;;;;;12.02;2.15;;;;;;;;;;5071130;27;20104;-79
2022/01/29 14:01:10;;;;;;;9.40;2.03;;;;;;;;;;5096053;27;20051;-81
2022/01/29 14:03:51;;;;;;;17.33;2.38;;;11.10;1.00;;;;;;5099983;28;20035;-80
2022/01/29 14:06:19;;;;;;;12.05;2.25;;;;;;;;;;5077987;28;20050;-79
2022/01/29 14:08:45;;;;;;;10.35;1.95;;;;;;;;;;5080851;27;20042;-81
2022/01/29 14:11:15;;;;;;;16.80;2.90;;;;;;;;;;5095309;27;20420;-80
2022/01/29 14:13:41;;;;;;;15.98;3.50;;;;;;;;;;5096659;27;20043;-81
2022/01/29 14:16:07;;;;;;;14.68;2.85;;;;;;;;;;5090822;27;20134;-81
2022/01/29 14:18:35;;;;;;;13.43;3.45;;;;;;;;;;5093919;28;20428;-83
2022/01/29 14:21:02;;;;;;;12.40;2.53;;;;;;;;;;5095881;27;20049;-82
2022/01/29 14:23:28;;;;;;;12.52;2.55;;;;;;;;;;5099009;27;20079;-82
2022/01/29 14:25:54;;;;;;;12.63;3.22;;;;;;;;;;5092292;27;20049;-84
2022/01/29 14:28:22;;;;;;;23.00;3.33;;;;;;;;;;5099442;27;20039;-81
2022/01/29 14:30:49;;;;;;;17.05;3.83;;;;;;;;;;5101562;27;20060;-81
2022/01/29 14:33:15;;;;;;;17.02;3.67;;;;;;;;;;5097720;27;20035;-81
2022/01/29 14:35:41;;;;;;;19.95;3.60;;;;;;;;;;5079982;27;20049;-81
2022/01/29 14:38:07;;;;;;;17.30;2.67;;;;;;;;;;5091056;28;20047;-82
2022/01/29 14:40:33;;;;;;;17.08;3.30;;;;;;;;;;5101314;27;20084;-81